< < Back
Terminal Aerodrome Forecast


Current Version              Previous Versions:   1  2  3  4  5  6  7  8  9  

Terminal Aerodrome Forecast

738
FTUS44 KBMX 281120
TAFTCL
TAF
KTCL 281120Z 2812/2912 18004KT 6SM -RA BKN060 BKN150
     FM281800 17008KT P6SM SCT045 BKN250
     FM290300 00000KT P6SM SCT250=

Latest METAR

157
SAUS70 KWBC 282200 RRL
MTRTCL
METAR KTCL 282153Z 18008KT 130V200 10SM CLR 30/17 A3005 RMK AO2 SLP173
T03000167


USA.gov is the U.S. government's official web portal to all federal, state and local government web resources and services.